createdAt,value
2022-07-25T00:00:30.307Z,92.84
2022-07-25T00:10:31.915Z,92.34
2022-07-25T00:20:33.523Z,92.08
2022-07-25T00:30:35.281Z,92.16
2022-07-25T00:40:37.013Z,91.30
2022-07-25T00:50:38.596Z,90.94
2022-07-25T01:00:41.059Z,91.00
2022-07-25T01:10:42.649Z,90.58
2022-07-25T01:20:44.377Z,89.87
2022-07-25T01:30:46.291Z,90.23
2022-07-25T01:40:47.921Z,89.55
2022-07-25T01:50:49.501Z,90.61
2022-07-25T02:00:51.475Z,89.80
2022-07-25T02:10:53.265Z,90.17
2022-07-25T02:20:54.902Z,90.84
2022-07-25T02:30:56.517Z,91.38
2022-07-25T02:40:58.202Z,91.21
2022-07-25T02:50:59.805Z,90.34
2022-07-25T03:01:01.520Z,90.51
2022-07-25T03:11:03.720Z,90.80
2022-07-25T03:21:06.253Z,89.61
2022-07-25T03:31:08.179Z,89.13
2022-07-25T03:41:09.776Z,87.92
2022-07-25T03:51:11.339Z,88.21
2022-07-25T04:01:13.031Z,89.26
2022-07-25T04:11:14.839Z,89.38
2022-07-25T04:21:16.418Z,87.00
2022-07-25T04:31:18.242Z,85.58
2022-07-25T04:41:19.872Z,84.06
2022-07-25T04:51:21.480Z,80.08
2022-07-25T05:01:23.164Z,78.75
2022-07-25T05:11:24.959Z,78.83
2022-07-25T05:21:27.767Z,76.17
2022-07-25T05:31:29.461Z,76.75
2022-07-25T05:41:31.294Z,73.04
2022-07-25T05:51:32.869Z,68.20
2022-07-25T06:01:34.845Z,65.70
2022-07-25T06:11:36.642Z,66.56
2022-07-25T06:21:52.808Z,65.35
2022-07-25T06:31:54.456Z,63.15
2022-07-25T06:41:56.314Z,62.09
2022-07-25T06:51:58.036Z,61.06
2022-07-25T07:01:59.602Z,57.10
2022-07-25T07:12:01.267Z,57.59
2022-07-25T07:22:03.842Z,55.47
2022-07-25T07:32:07.104Z,57.52
2022-07-25T07:42:10.001Z,57.02
2022-07-25T07:52:12.279Z,58.74
2022-07-25T08:02:14.832Z,60.23
2022-07-25T08:12:17.092Z,59.07
2022-07-25T08:22:18.903Z,54.47
2022-07-25T08:32:20.442Z,52.95
2022-07-25T08:42:22.270Z,49.85
2022-07-25T08:52:24.390Z,50.56
2022-07-25T09:02:29.344Z,47.31
2022-07-25T09:12:31.490Z,47.95
2022-07-25T09:22:42.947Z,44.37
2022-07-25T09:32:44.781Z,47.68
2022-07-25T09:42:50.215Z,46.80
2022-07-25T09:52:52.491Z,44.43
2022-07-25T10:03:12.822Z,46.57
2022-07-25T10:13:17.985Z,41.59
2022-07-25T10:23:20.930Z,40.12
2022-07-25T10:33:25.015Z,37.56
2022-07-25T10:43:27.800Z,42.31
2022-07-25T10:53:34.826Z,40.30
2022-07-25T11:03:37.434Z,37.75
2022-07-25T11:13:42.647Z,36.79
2022-07-25T11:23:50.327Z,40.41
2022-07-25T11:33:51.987Z,39.85
2022-07-25T11:43:54.697Z,42.19
2022-07-25T11:53:57.311Z,40.81
2022-07-25T12:04:07.889Z,41.42
2022-07-25T12:14:10.832Z,37.12
2022-07-25T12:24:12.996Z,40.27
2022-07-25T12:34:14.633Z,43.54
2022-07-25T12:44:17.285Z,44.07
2022-07-25T12:54:22.586Z,42.91
2022-07-25T13:04:26.811Z,40.35
2022-07-25T13:14:31.091Z,44.36
2022-07-25T13:24:45.916Z,44.39
2022-07-25T13:34:47.879Z,41.99
2022-07-25T13:44:49.678Z,39.08
2022-07-25T13:54:51.466Z,44.45
2022-07-25T14:04:54.288Z,45.33
2022-07-25T14:14:55.891Z,47.54
2022-07-25T14:24:58.198Z,46.15
2022-07-25T14:35:01.932Z,49.12
2022-07-25T14:45:04.742Z,48.93
2022-07-25T14:55:06.902Z,44.90
2022-07-25T15:05:08.891Z,41.78
2022-07-25T15:15:11.586Z,42.21
2022-07-25T15:25:48.251Z,43.57
2022-07-25T15:35:37.909Z,45.17
2022-07-25T15:45:44.149Z,43.95
2022-07-25T15:55:46.205Z,43.98
2022-07-25T16:05:48.016Z,41.74
2022-07-25T16:15:49.638Z,46.23
2022-07-25T16:25:51.538Z,48.72
2022-07-25T16:35:53.162Z,48.47
2022-07-25T16:45:54.800Z,49.45
2022-07-25T16:55:56.613Z,48.73
2022-07-25T17:05:58.337Z,49.79
2022-07-25T17:16:00.124Z,47.63
2022-07-25T17:26:02.341Z,49.60
2022-07-25T17:36:04.159Z,51.65
2022-07-25T17:46:05.932Z,54.07
2022-07-25T17:56:08.466Z,55.64
2022-07-25T18:06:10.202Z,57.54
2022-07-25T18:16:12.145Z,58.10
2022-07-25T18:26:13.866Z,57.08
2022-07-25T18:36:16.225Z,58.05
2022-07-25T18:46:18.032Z,59.84
2022-07-25T18:56:19.675Z,60.04
2022-07-25T19:06:21.352Z,61.91
2022-07-25T19:16:23.238Z,64.37
2022-07-25T19:26:25.011Z,64.83
2022-07-25T19:36:26.610Z,67.90
2022-07-25T19:46:33.526Z,67.95
2022-07-25T19:56:35.537Z,68.55
2022-07-25T20:06:37.561Z,68.57
2022-07-25T20:16:39.375Z,68.64
2022-07-25T20:26:41.285Z,67.88
2022-07-25T20:36:42.861Z,70.00
2022-07-25T20:46:45.479Z,71.13
2022-07-25T20:56:48.087Z,71.67
2022-07-25T21:06:50.178Z,72.16
2022-07-25T21:16:51.959Z,72.27
2022-07-25T21:26:53.776Z,72.15
2022-07-25T21:36:55.343Z,72.42
2022-07-25T21:46:57.219Z,73.25
2022-07-25T21:56:58.854Z,74.33
2022-07-25T22:07:00.786Z,75.13
2022-07-25T22:17:02.789Z,74.60
2022-07-25T22:27:04.684Z,76.02
2022-07-25T22:37:06.296Z,76.29
2022-07-25T22:47:11.023Z,77.09
2022-07-25T22:57:12.603Z,78.07
2022-07-25T23:07:14.342Z,79.14
2022-07-25T23:17:20.154Z,79.56
2022-07-25T23:27:22.542Z,80.10
2022-07-25T23:37:24.182Z,80.55
2022-07-25T23:47:28.992Z,78.81
2022-07-25T23:57:40.994Z,79.50
